sensor_id;sensor_type;location;lat;lon;timestamp;P1;durP1;ratioP1;P2;durP2;ratioP2
46731;SDS011;32477;51.474;5.696;2023-07-31T00:00:26;19.55;;;7.47;;
46731;SDS011;32477;51.474;5.696;2023-07-31T00:02:52;28.35;;;7.40;;
46731;SDS011;32477;51.474;5.696;2023-07-31T00:05:18;26.35;;;7.65;;
46731;SDS011;32477;51.474;5.696;2023-07-31T00:07:43;34.20;;;7.90;;
46731;SDS011;32477;51.474;5.696;2023-07-31T00:10:09;26.75;;;7.30;;
46731;SDS011;32477;51.474;5.696;2023-07-31T00:12:35;18.90;;;7.63;;
46731;SDS011;32477;51.474;5.696;2023-07-31T00:15:01;23.00;;;7.15;;
46731;SDS011;32477;51.474;5.696;2023-07-31T00:17:27;35.47;;;7.05;;
46731;SDS011;32477;51.474;5.696;2023-07-31T00:19:53;23.25;;;6.72;;
46731;SDS011;32477;51.474;5.696;2023-07-31T00:22:18;29.00;;;7.10;;
46731;SDS011;32477;51.474;5.696;2023-07-31T00:24:44;28.38;;;7.05;;
46731;SDS011;32477;51.474;5.696;2023-07-31T00:27:10;16.60;;;5.72;;
46731;SDS011;32477;51.474;5.696;2023-07-31T00:29:35;21.60;;;5.90;;
46731;SDS011;32477;51.474;5.696;2023-07-31T00:32:01;22.33;;;6.45;;
46731;SDS011;32477;51.474;5.696;2023-07-31T00:34:27;26.17;;;5.85;;
46731;SDS011;32477;51.474;5.696;2023-07-31T00:36:52;20.67;;;5.57;;
46731;SDS011;32477;51.474;5.696;2023-07-31T00:39:18;21.80;;;6.28;;
46731;SDS011;32477;51.474;5.696;2023-07-31T00:41:44;25.38;;;7.03;;
46731;SDS011;32477;51.474;5.696;2023-07-31T00:44:09;17.63;;;5.55;;
46731;SDS011;32477;51.474;5.696;2023-07-31T00:46:35;16.23;;;5.43;;
46731;SDS011;32477;51.474;5.696;2023-07-31T00:49:01;17.58;;;6.15;;
46731;SDS011;32477;51.474;5.696;2023-07-31T00:51:27;27.17;;;6.53;;
46731;SDS011;32477;51.474;5.696;2023-07-31T00:53:53;21.60;;;6.50;;
46731;SDS011;32477;51.474;5.696;2023-07-31T00:56:20;24.70;;;6.15;;
46731;SDS011;32477;51.474;5.696;2023-07-31T00:58:47;19.17;;;5.30;;
46731;SDS011;32477;51.474;5.696;2023-07-31T01:01:12;20.48;;;5.65;;
46731;SDS011;32477;51.474;5.696;2023-07-31T01:03:38;22.20;;;5.40;;
46731;SDS011;32477;51.474;5.696;2023-07-31T01:06:10;23.00;;;5.40;;
46731;SDS011;32477;51.474;5.696;2023-07-31T01:08:41;19.20;;;4.95;;
46731;SDS011;32477;51.474;5.696;2023-07-31T01:11:19;13.13;;;5.47;;
46731;SDS011;32477;51.474;5.696;2023-07-31T01:13:52;31.38;;;5.55;;
46731;SDS011;32477;51.474;5.696;2023-07-31T01:16:19;19.25;;;5.25;;
46731;SDS011;32477;51.474;5.696;2023-07-31T01:18:44;24.63;;;5.10;;
46731;SDS011;32477;51.474;5.696;2023-07-31T01:21:30;17.42;;;4.90;;
46731;SDS011;32477;51.474;5.696;2023-07-31T01:26:45;24.33;;;5.40;;
46731;SDS011;32477;51.474;5.696;2023-07-31T01:29:38;15.43;;;5.20;;
46731;SDS011;32477;51.474;5.696;2023-07-31T01:32:17;17.75;;;4.97;;
46731;SDS011;32477;51.474;5.696;2023-07-31T01:34:43;19.70;;;4.93;;
46731;SDS011;32477;51.474;5.696;2023-07-31T01:37:10;18.75;;;5.05;;
46731;SDS011;32477;51.474;5.696;2023-07-31T01:39:39;14.15;;;5.00;;
46731;SDS011;32477;51.474;5.696;2023-07-31T01:42:04;19.23;;;6.20;;
46731;SDS011;32477;51.474;5.696;2023-07-31T01:44:30;22.70;;;4.75;;
46731;SDS011;32477;51.474;5.696;2023-07-31T01:46:56;18.23;;;5.40;;
46731;SDS011;32477;51.474;5.696;2023-07-31T01:49:21;18.77;;;6.50;;
46731;SDS011;32477;51.474;5.696;2023-07-31T01:51:47;19.23;;;4.72;;
46731;SDS011;32477;51.474;5.696;2023-07-31T01:54:12;15.40;;;5.05;;
46731;SDS011;32477;51.474;5.696;2023-07-31T01:56:38;21.40;;;5.88;;
46731;SDS011;32477;51.474;5.696;2023-07-31T01:59:03;19.45;;;5.90;;
46731;SDS011;32477;51.474;5.696;2023-07-31T02:01:29;18.70;;;5.78;;
46731;SDS011;32477;51.474;5.696;2023-07-31T02:03:55;18.75;;;5.78;;
46731;SDS011;32477;51.474;5.696;2023-07-31T02:06:20;16.05;;;4.55;;
46731;SDS011;32477;51.474;5.696;2023-07-31T02:08:47;21.58;;;6.35;;
46731;SDS011;32477;51.474;5.696;2023-07-31T02:11:13;20.63;;;4.82;;
46731;SDS011;32477;51.474;5.696;2023-07-31T02:13:38;12.07;;;4.53;;
46731;SDS011;32477;51.474;5.696;2023-07-31T02:16:04;17.83;;;5.95;;
46731;SDS011;32477;51.474;5.696;2023-07-31T02:18:29;14.98;;;4.95;;
46731;SDS011;32477;51.474;5.696;2023-07-31T02:20:55;15.27;;;5.30;;
46731;SDS011;32477;51.474;5.696;2023-07-31T02:23:21;18.45;;;5.97;;
46731;SDS011;32477;51.474;5.696;2023-07-31T02:25:47;17.55;;;4.82;;
46731;SDS011;32477;51.474;5.696;2023-07-31T02:28:12;19.98;;;5.68;;
46731;SDS011;32477;51.474;5.696;2023-07-31T02:30:38;15.80;;;5.43;;
46731;SDS011;32477;51.474;5.696;2023-07-31T02:33:04;22.73;;;5.85;;
46731;SDS011;32477;51.474;5.696;2023-07-31T02:35:30;19.13;;;5.20;;
46731;SDS011;32477;51.474;5.696;2023-07-31T02:37:56;24.10;;;5.93;;
46731;SDS011;32477;51.474;5.696;2023-07-31T02:40:21;23.65;;;5.57;;
46731;SDS011;32477;51.474;5.696;2023-07-31T02:42:47;18.33;;;5.53;;
46731;SDS011;32477;51.474;5.696;2023-07-31T02:45:13;30.00;;;6.15;;
46731;SDS011;32477;51.474;5.696;2023-07-31T02:47:38;16.27;;;5.25;;
46731;SDS011;32477;51.474;5.696;2023-07-31T02:50:04;22.92;;;5.70;;
46731;SDS011;32477;51.474;5.696;2023-07-31T02:52:30;17.08;;;5.63;;
46731;SDS011;32477;51.474;5.696;2023-07-31T02:54:55;20.75;;;5.90;;
46731;SDS011;32477;51.474;5.696;2023-07-31T02:57:22;14.93;;;5.50;;
46731;SDS011;32477;51.474;5.696;2023-07-31T02:59:47;21.48;;;5.65;;
46731;SDS011;32477;51.474;5.696;2023-07-31T03:02:13;23.92;;;5.72;;
46731;SDS011;32477;51.474;5.696;2023-07-31T03:04:39;26.25;;;6.05;;
46731;SDS011;32477;51.474;5.696;2023-07-31T03:07:05;20.58;;;6.30;;
46731;SDS011;32477;51.474;5.696;2023-07-31T03:09:30;21.42;;;5.15;;
46731;SDS011;32477;51.474;5.696;2023-07-31T03:11:56;27.02;;;5.35;;
46731;SDS011;32477;51.474;5.696;2023-07-31T03:14:21;17.85;;;5.40;;
46731;SDS011;32477;51.474;5.696;2023-07-31T03:16:47;17.73;;;5.07;;
46731;SDS011;32477;51.474;5.696;2023-07-31T03:19:13;17.27;;;5.30;;
46731;SDS011;32477;51.474;5.696;2023-07-31T03:21:39;16.75;;;4.93;;
46731;SDS011;32477;51.474;5.696;2023-07-31T03:24:05;20.13;;;4.93;;
46731;SDS011;32477;51.474;5.696;2023-07-31T03:26:33;19.70;;;5.15;;
46731;SDS011;32477;51.474;5.696;2023-07-31T03:29:00;23.98;;;5.43;;
46731;SDS011;32477;51.474;5.696;2023-07-31T03:31:25;26.85;;;5.88;;
46731;SDS011;32477;51.474;5.696;2023-07-31T03:33:51;19.83;;;6.47;;
46731;SDS011;32477;51.474;5.696;2023-07-31T03:36:17;11.85;;;4.50;;
46731;SDS011;32477;51.474;5.696;2023-07-31T03:38:42;23.50;;;5.63;;
46731;SDS011;32477;51.474;5.696;2023-07-31T03:41:08;18.30;;;5.75;;
46731;SDS011;32477;51.474;5.696;2023-07-31T03:43:35;19.27;;;5.97;;
46731;SDS011;32477;51.474;5.696;2023-07-31T03:46:01;20.15;;;5.45;;
46731;SDS011;32477;51.474;5.696;2023-07-31T03:48:27;23.83;;;5.57;;
46731;SDS011;32477;51.474;5.696;2023-07-31T03:50:53;23.30;;;4.97;;
46731;SDS011;32477;51.474;5.696;2023-07-31T03:53:19;15.05;;;5.43;;
46731;SDS011;32477;51.474;5.696;2023-07-31T03:55:44;22.95;;;4.97;;
46731;SDS011;32477;51.474;5.696;2023-07-31T03:58:10;18.15;;;5.65;;
46731;SDS011;32477;51.474;5.696;2023-07-31T04:00:36;10.25;;;4.63;;
46731;SDS011;32477;51.474;5.696;2023-07-31T04:03:01;17.30;;;4.43;;
46731;SDS011;32477;51.474;5.696;2023-07-31T04:05:27;24.35;;;5.30;;
46731;SDS011;32477;51.474;5.696;2023-07-31T04:07:54;22.52;;;5.05;;
46731;SDS011;32477;51.474;5.696;2023-07-31T04:10:20;16.85;;;5.22;;
46731;SDS011;32477;51.474;5.696;2023-07-31T04:12:46;19.77;;;6.35;;
46731;SDS011;32477;51.474;5.696;2023-07-31T04:15:11;16.27;;;5.10;;
46731;SDS011;32477;51.474;5.696;2023-07-31T04:17:37;14.48;;;5.30;;
46731;SDS011;32477;51.474;5.696;2023-07-31T04:20:02;14.15;;;4.93;;
46731;SDS011;32477;51.474;5.696;2023-07-31T04:22:28;19.23;;;5.28;;
46731;SDS011;32477;51.474;5.696;2023-07-31T04:24:54;18.33;;;6.10;;
46731;SDS011;32477;51.474;5.696;2023-07-31T04:27:19;12.93;;;5.57;;
46731;SDS011;32477;51.474;5.696;2023-07-31T04:29:45;14.35;;;5.65;;
46731;SDS011;32477;51.474;5.696;2023-07-31T04:32:12;12.65;;;5.18;;
46731;SDS011;32477;51.474;5.696;2023-07-31T04:34:38;17.08;;;5.03;;
46731;SDS011;32477;51.474;5.696;2023-07-31T04:37:03;17.27;;;5.63;;
46731;SDS011;32477;51.474;5.696;2023-07-31T04:39:29;16.17;;;5.22;;
46731;SDS011;32477;51.474;5.696;2023-07-31T04:41:55;19.45;;;5.47;;
46731;SDS011;32477;51.474;5.696;2023-07-31T04:44:20;28.52;;;4.72;;
46731;SDS011;32477;51.474;5.696;2023-07-31T04:46:46;15.75;;;5.07;;
46731;SDS011;32477;51.474;5.696;2023-07-31T04:49:11;16.75;;;5.55;;
46731;SDS011;32477;51.474;5.696;2023-07-31T04:51:37;19.77;;;5.32;;
46731;SDS011;32477;51.474;5.696;2023-07-31T04:54:02;14.30;;;4.95;;
46731;SDS011;32477;51.474;5.696;2023-07-31T04:56:28;19.02;;;5.18;;
46731;SDS011;32477;51.474;5.696;2023-07-31T04:58:54;18.08;;;5.13;;
46731;SDS011;32477;51.474;5.696;2023-07-31T05:01:20;15.55;;;5.22;;
46731;SDS011;32477;51.474;5.696;2023-07-31T05:03:45;11.40;;;4.72;;
46731;SDS011;32477;51.474;5.696;2023-07-31T05:06:11;15.20;;;5.40;;
46731;SDS011;32477;51.474;5.696;2023-07-31T05:08:38;13.85;;;5.50;;
46731;SDS011;32477;51.474;5.696;2023-07-31T05:11:04;14.27;;;4.40;;
46731;SDS011;32477;51.474;5.696;2023-07-31T05:13:30;19.98;;;5.93;;
46731;SDS011;32477;51.474;5.696;2023-07-31T05:15:55;17.30;;;5.30;;
46731;SDS011;32477;51.474;5.696;2023-07-31T05:18:21;12.57;;;5.28;;
46731;SDS011;32477;51.474;5.696;2023-07-31T05:20:46;14.90;;;5.65;;
46731;SDS011;32477;51.474;5.696;2023-07-31T05:23:12;18.52;;;6.20;;
46731;SDS011;32477;51.474;5.696;2023-07-31T05:25:37;11.00;;;5.03;;
46731;SDS011;32477;51.474;5.696;2023-07-31T05:28:03;12.13;;;4.55;;
46731;SDS011;32477;51.474;5.696;2023-07-31T05:30:32;11.07;;;4.65;;
46731;SDS011;32477;51.474;5.696;2023-07-31T05:32:57;13.10;;;4.43;;
46731;SDS011;32477;51.474;5.696;2023-07-31T05:35:23;11.80;;;4.32;;
46731;SDS011;32477;51.474;5.696;2023-07-31T05:37:48;12.60;;;4.22;;
46731;SDS011;32477;51.474;5.696;2023-07-31T05:40:14;10.48;;;4.18;;
46731;SDS011;32477;51.474;5.696;2023-07-31T05:42:40;13.65;;;5.30;;
46731;SDS011;32477;51.474;5.696;2023-07-31T05:45:06;12.07;;;5.03;;
46731;SDS011;32477;51.474;5.696;2023-07-31T05:47:32;11.77;;;4.65;;
46731;SDS011;32477;51.474;5.696;2023-07-31T05:49:58;9.50;;;4.25;;
46731;SDS011;32477;51.474;5.696;2023-07-31T05:52:23;14.43;;;4.60;;
46731;SDS011;32477;51.474;5.696;2023-07-31T05:54:50;15.38;;;4.93;;
46731;SDS011;32477;51.474;5.696;2023-07-31T05:57:16;12.82;;;4.78;;
46731;SDS011;32477;51.474;5.696;2023-07-31T05:59:42;12.23;;;4.70;;
46731;SDS011;32477;51.474;5.696;2023-07-31T06:02:07;15.48;;;5.65;;
46731;SDS011;32477;51.474;5.696;2023-07-31T06:04:33;12.45;;;6.45;;
46731;SDS011;32477;51.474;5.696;2023-07-31T06:06:58;16.30;;;7.00;;
46731;SDS011;32477;51.474;5.696;2023-07-31T06:09:25;16.60;;;6.22;;
46731;SDS011;32477;51.474;5.696;2023-07-31T06:11:50;15.23;;;6.15;;
46731;SDS011;32477;51.474;5.696;2023-07-31T06:14:16;16.10;;;6.47;;
46731;SDS011;32477;51.474;5.696;2023-07-31T06:16:42;15.90;;;5.68;;
46731;SDS011;32477;51.474;5.696;2023-07-31T06:19:09;14.27;;;5.15;;
46731;SDS011;32477;51.474;5.696;2023-07-31T06:21:34;12.30;;;5.28;;
46731;SDS011;32477;51.474;5.696;2023-07-31T06:24:02;11.75;;;4.80;;
46731;SDS011;32477;51.474;5.696;2023-07-31T06:26:28;10.48;;;5.75;;
46731;SDS011;32477;51.474;5.696;2023-07-31T06:28:54;13.57;;;5.63;;
46731;SDS011;32477;51.474;5.696;2023-07-31T06:31:19;10.10;;;5.65;;
46731;SDS011;32477;51.474;5.696;2023-07-31T06:33:48;12.85;;;5.18;;
46731;SDS011;32477;51.474;5.696;2023-07-31T06:36:14;15.00;;;6.45;;
46731;SDS011;32477;51.474;5.696;2023-07-31T06:38:39;15.43;;;6.18;;
46731;SDS011;32477;51.474;5.696;2023-07-31T06:41:05;15.77;;;7.47;;
46731;SDS011;32477;51.474;5.696;2023-07-31T06:43:30;19.00;;;6.43;;
46731;SDS011;32477;51.474;5.696;2023-07-31T06:45:56;11.63;;;5.95;;
46731;SDS011;32477;51.474;5.696;2023-07-31T06:48:22;15.80;;;6.03;;
46731;SDS011;32477;51.474;5.696;2023-07-31T06:50:47;11.82;;;5.93;;
46731;SDS011;32477;51.474;5.696;2023-07-31T06:53:13;18.05;;;6.32;;
46731;SDS011;32477;51.474;5.696;2023-07-31T06:55:38;9.93;;;5.53;;
46731;SDS011;32477;51.474;5.696;2023-07-31T06:58:04;12.23;;;5.55;;
46731;SDS011;32477;51.474;5.696;2023-07-31T07:00:30;9.50;;;5.25;;
46731;SDS011;32477;51.474;5.696;2023-07-31T07:02:55;11.43;;;5.57;;
46731;SDS011;32477;51.474;5.696;2023-07-31T07:05:21;13.00;;;4.95;;
46731;SDS011;32477;51.474;5.696;2023-07-31T07:07:49;13.52;;;4.75;;
46731;SDS011;32477;51.474;5.696;2023-07-31T07:10:16;11.63;;;5.40;;
46731;SDS011;32477;51.474;5.696;2023-07-31T07:12:41;13.80;;;5.22;;
46731;SDS011;32477;51.474;5.696;2023-07-31T07:15:07;11.77;;;5.93;;
46731;SDS011;32477;51.474;5.696;2023-07-31T07:17:33;12.10;;;5.18;;
46731;SDS011;32477;51.474;5.696;2023-07-31T07:19:59;14.13;;;4.88;;
46731;SDS011;32477;51.474;5.696;2023-07-31T07:22:25;6.55;;;4.38;;
46731;SDS011;32477;51.474;5.696;2023-07-31T07:24:52;10.25;;;4.57;;
46731;SDS011;32477;51.474;5.696;2023-07-31T07:27:18;8.70;;;4.65;;
46731;SDS011;32477;51.474;5.696;2023-07-31T07:29:43;12.82;;;4.97;;
46731;SDS011;32477;51.474;5.696;2023-07-31T07:32:10;7.07;;;4.20;;
46731;SDS011;32477;51.474;5.696;2023-07-31T07:34:36;9.05;;;4.30;;
46731;SDS011;32477;51.474;5.696;2023-07-31T07:37:02;12.25;;;3.85;;
46731;SDS011;32477;51.474;5.696;2023-07-31T07:39:28;8.05;;;3.85;;
46731;SDS011;32477;51.474;5.696;2023-07-31T07:41:53;8.65;;;3.95;;
46731;SDS011;32477;51.474;5.696;2023-07-31T07:44:19;9.95;;;4.32;;
46731;SDS011;32477;51.474;5.696;2023-07-31T07:46:45;6.00;;;3.50;;
46731;SDS011;32477;51.474;5.696;2023-07-31T07:49:10;7.57;;;4.22;;
46731;SDS011;32477;51.474;5.696;2023-07-31T07:51:36;8.15;;;4.30;;
46731;SDS011;32477;51.474;5.696;2023-07-31T07:54:01;9.63;;;4.13;;
46731;SDS011;32477;51.474;5.696;2023-07-31T07:56:27;8.93;;;4.47;;
46731;SDS011;32477;51.474;5.696;2023-07-31T07:58:53;9.00;;;4.60;;
46731;SDS011;32477;51.474;5.696;2023-07-31T08:01:19;8.13;;;4.65;;
46731;SDS011;32477;51.474;5.696;2023-07-31T08:03:45;7.93;;;4.72;;
46731;SDS011;32477;51.474;5.696;2023-07-31T08:06:11;8.95;;;4.13;;
46731;SDS011;32477;51.474;5.696;2023-07-31T08:08:37;11.93;;;4.93;;
46731;SDS011;32477;51.474;5.696;2023-07-31T08:11:03;9.63;;;4.55;;
46731;SDS011;32477;51.474;5.696;2023-07-31T08:13:29;10.25;;;4.90;;
46731;SDS011;32477;51.474;5.696;2023-07-31T08:15:54;9.27;;;5.80;;
46731;SDS011;32477;51.474;5.696;2023-07-31T08:18:20;9.57;;;5.45;;
46731;SDS011;32477;51.474;5.696;2023-07-31T08:20:46;14.13;;;5.28;;
46731;SDS011;32477;51.474;5.696;2023-07-31T08:23:12;10.23;;;5.05;;
46731;SDS011;32477;51.474;5.696;2023-07-31T08:25:38;8.80;;;5.20;;
46731;SDS011;32477;51.474;5.696;2023-07-31T08:28:04;9.18;;;5.30;;
46731;SDS011;32477;51.474;5.696;2023-07-31T08:30:30;12.52;;;5.40;;
46731;SDS011;32477;51.474;5.696;2023-07-31T08:32:56;12.45;;;5.07;;
46731;SDS011;32477;51.474;5.696;2023-07-31T08:35:23;9.65;;;5.40;;
46731;SDS011;32477;51.474;5.696;2023-07-31T08:37:49;9.48;;;5.32;;
46731;SDS011;32477;51.474;5.696;2023-07-31T08:40:15;11.05;;;5.00;;
46731;SDS011;32477;51.474;5.696;2023-07-31T08:42:47;8.75;;;5.53;;
46731;SDS011;32477;51.474;5.696;2023-07-31T08:45:16;9.13;;;5.70;;
46731;SDS011;32477;51.474;5.696;2023-07-31T08:47:47;11.95;;;5.28;;
46731;SDS011;32477;51.474;5.696;2023-07-31T08:50:17;12.05;;;5.43;;
46731;SDS011;32477;51.474;5.696;2023-07-31T08:52:45;10.48;;;4.82;;
46731;SDS011;32477;51.474;5.696;2023-07-31T08:55:12;8.77;;;5.35;;
46731;SDS011;32477;51.474;5.696;2023-07-31T08:57:38;9.30;;;5.00;;
46731;SDS011;32477;51.474;5.696;2023-07-31T09:00:05;9.73;;;5.25;;
46731;SDS011;32477;51.474;5.696;2023-07-31T09:02:37;13.77;;;6.03;;
46731;SDS011;32477;51.474;5.696;2023-07-31T09:05:06;9.23;;;5.18;;
46731;SDS011;32477;51.474;5.696;2023-07-31T09:07:33;10.13;;;5.13;;
46731;SDS011;32477;51.474;5.696;2023-07-31T09:10:00;10.18;;;5.80;;
46731;SDS011;32477;51.474;5.696;2023-07-31T09:12:27;19.23;;;5.82;;
46731;SDS011;32477;51.474;5.696;2023-07-31T09:14:53;13.80;;;5.57;;
46731;SDS011;32477;51.474;5.696;2023-07-31T09:17:28;11.52;;;5.35;;
46731;SDS011;32477;51.474;5.696;2023-07-31T09:23:06;14.07;;;5.30;;
46731;SDS011;32477;51.474;5.696;2023-07-31T09:25:33;12.50;;;4.97;;
46731;SDS011;32477;51.474;5.696;2023-07-31T09:30:28;16.90;;;5.57;;
46731;SDS011;32477;51.474;5.696;2023-07-31T09:33:01;9.98;;;4.82;;
46731;SDS011;32477;51.474;5.696;2023-07-31T09:35:29;8.30;;;4.90;;
46731;SDS011;32477;51.474;5.696;2023-07-31T09:37:58;9.57;;;4.45;;
46731;SDS011;32477;51.474;5.696;2023-07-31T09:40:44;11.05;;;4.90;;
46731;SDS011;32477;51.474;5.696;2023-07-31T09:43:11;12.13;;;4.85;;
46731;SDS011;32477;51.474;5.696;2023-07-31T09:45:39;10.00;;;4.65;;
46731;SDS011;32477;51.474;5.696;2023-07-31T09:48:18;9.38;;;4.40;;
46731;SDS011;32477;51.474;5.696;2023-07-31T09:50:44;11.38;;;4.63;;
46731;SDS011;32477;51.474;5.696;2023-07-31T09:53:12;12.38;;;4.60;;
46731;SDS011;32477;51.474;5.696;2023-07-31T09:55:38;5.57;;;3.78;;
46731;SDS011;32477;51.474;5.696;2023-07-31T09:58:05;15.30;;;4.75;;
46731;SDS011;32477;51.474;5.696;2023-07-31T10:00:35;6.78;;;4.57;;
46731;SDS011;32477;51.474;5.696;2023-07-31T10:03:06;7.30;;;4.53;;
46731;SDS011;32477;51.474;5.696;2023-07-31T10:05:36;11.73;;;4.90;;
46731;SDS011;32477;51.474;5.696;2023-07-31T10:08:07;8.23;;;4.07;;
46731;SDS011;32477;51.474;5.696;2023-07-31T10:10:38;9.35;;;3.83;;
46731;SDS011;32477;51.474;5.696;2023-07-31T10:13:07;8.35;;;4.82;;
46731;SDS011;32477;51.474;5.696;2023-07-31T10:15:33;10.15;;;4.03;;
46731;SDS011;32477;51.474;5.696;2023-07-31T10:18:00;5.63;;;4.07;;
46731;SDS011;32477;51.474;5.696;2023-07-31T10:20:27;9.35;;;3.85;;
46731;SDS011;32477;51.474;5.696;2023-07-31T10:22:57;6.38;;;3.42;;
46731;SDS011;32477;51.474;5.696;2023-07-31T10:25:24;7.80;;;4.43;;
46731;SDS011;32477;51.474;5.696;2023-07-31T10:27:51;8.68;;;3.72;;
46731;SDS011;32477;51.474;5.696;2023-07-31T10:30:19;8.10;;;4.22;;
46731;SDS011;32477;51.474;5.696;2023-07-31T10:32:47;10.02;;;4.07;;
46731;SDS011;32477;51.474;5.696;2023-07-31T10:35:15;8.38;;;4.05;;
46731;SDS011;32477;51.474;5.696;2023-07-31T10:37:42;10.25;;;4.10;;
46731;SDS011;32477;51.474;5.696;2023-07-31T10:40:12;8.55;;;3.58;;
46731;SDS011;32477;51.474;5.696;2023-07-31T10:42:48;12.63;;;4.13;;
46731;SDS011;32477;51.474;5.696;2023-07-31T10:50:49;12.63;;;4.22;;
46731;SDS011;32477;51.474;5.696;2023-07-31T10:53:23;9.50;;;3.33;;
46731;SDS011;32477;51.474;5.696;2023-07-31T10:55:59;8.95;;;3.72;;
46731;SDS011;32477;51.474;5.696;2023-07-31T10:58:26;7.50;;;3.53;;
46731;SDS011;32477;51.474;5.696;2023-07-31T11:00:55;9.57;;;3.60;;
46731;SDS011;32477;51.474;5.696;2023-07-31T11:03:25;9.75;;;4.00;;
46731;SDS011;32477;51.474;5.696;2023-07-31T11:08:23;7.55;;;3.55;;
46731;SDS011;32477;51.474;5.696;2023-07-31T11:10:51;5.07;;;2.88;;
46731;SDS011;32477;51.474;5.696;2023-07-31T11:13:33;7.55;;;3.95;;
46731;SDS011;32477;51.474;5.696;2023-07-31T11:16:06;5.70;;;3.10;;
46731;SDS011;32477;51.474;5.696;2023-07-31T11:18:32;5.38;;;3.25;;
46731;SDS011;32477;51.474;5.696;2023-07-31T11:20:58;6.82;;;2.92;;
46731;SDS011;32477;51.474;5.696;2023-07-31T11:23:24;6.10;;;3.53;;
46731;SDS011;32477;51.474;5.696;2023-07-31T11:25:50;5.43;;;3.50;;
46731;SDS011;32477;51.474;5.696;2023-07-31T11:28:16;12.48;;;3.38;;
46731;SDS011;32477;51.474;5.696;2023-07-31T11:30:44;7.97;;;3.42;;
46731;SDS011;32477;51.474;5.696;2023-07-31T11:33:12;5.75;;;2.78;;
46731;SDS011;32477;51.474;5.696;2023-07-31T11:35:45;5.07;;;2.83;;
46731;SDS011;32477;51.474;5.696;2023-07-31T11:38:20;6.25;;;2.90;;
46731;SDS011;32477;51.474;5.696;2023-07-31T11:40:51;7.50;;;2.90;;
46731;SDS011;32477;51.474;5.696;2023-07-31T11:43:18;7.50;;;3.17;;
46731;SDS011;32477;51.474;5.696;2023-07-31T11:45:47;8.40;;;3.00;;
46731;SDS011;32477;51.474;5.696;2023-07-31T11:48:18;5.88;;;3.05;;
46731;SDS011;32477;51.474;5.696;2023-07-31T11:50:44;6.22;;;3.17;;
46731;SDS011;32477;51.474;5.696;2023-07-31T11:53:11;7.63;;;3.15;;
46731;SDS011;32477;51.474;5.696;2023-07-31T11:55:38;5.70;;;3.10;;
46731;SDS011;32477;51.474;5.696;2023-07-31T11:58:04;5.97;;;2.55;;
46731;SDS011;32477;51.474;5.696;2023-07-31T12:00:30;5.45;;;3.42;;
46731;SDS011;32477;51.474;5.696;2023-07-31T12:02:56;5.97;;;3.40;;
46731;SDS011;32477;51.474;5.696;2023-07-31T12:05:22;4.97;;;2.90;;
46731;SDS011;32477;51.474;5.696;2023-07-31T12:07:52;6.13;;;3.25;;
46731;SDS011;32477;51.474;5.696;2023-07-31T12:10:29;6.15;;;2.70;;
46731;SDS011;32477;51.474;5.696;2023-07-31T12:13:00;7.45;;;2.90;;
46731;SDS011;32477;51.474;5.696;2023-07-31T12:18:10;8.98;;;3.20;;
46731;SDS011;32477;51.474;5.696;2023-07-31T12:20:43;5.30;;;3.20;;
46731;SDS011;32477;51.474;5.696;2023-07-31T12:23:14;4.53;;;2.97;;
46731;SDS011;32477;51.474;5.696;2023-07-31T12:25:44;7.60;;;2.83;;
46731;SDS011;32477;51.474;5.696;2023-07-31T12:28:10;8.20;;;3.13;;
46731;SDS011;32477;51.474;5.696;2023-07-31T12:30:39;6.47;;;3.30;;
46731;SDS011;32477;51.474;5.696;2023-07-31T12:33:06;7.15;;;3.13;;
46731;SDS011;32477;51.474;5.696;2023-07-31T12:35:37;5.10;;;3.00;;
46731;SDS011;32477;51.474;5.696;2023-07-31T12:38:05;5.35;;;2.67;;
46731;SDS011;32477;51.474;5.696;2023-07-31T12:40:31;5.13;;;3.08;;
46731;SDS011;32477;51.474;5.696;2023-07-31T12:42:57;8.13;;;4.18;;
46731;SDS011;32477;51.474;5.696;2023-07-31T12:45:23;8.02;;;3.83;;
46731;SDS011;32477;51.474;5.696;2023-07-31T12:47:48;8.98;;;4.15;;
46731;SDS011;32477;51.474;5.696;2023-07-31T12:50:15;15.60;;;4.18;;
46731;SDS011;32477;51.474;5.696;2023-07-31T12:52:41;15.57;;;5.00;;
46731;SDS011;32477;51.474;5.696;2023-07-31T12:55:06;11.27;;;4.40;;
46731;SDS011;32477;51.474;5.696;2023-07-31T12:57:32;10.63;;;3.88;;
46731;SDS011;32477;51.474;5.696;2023-07-31T12:59:58;9.15;;;4.28;;
46731;SDS011;32477;51.474;5.696;2023-07-31T13:02:23;10.65;;;4.35;;
46731;SDS011;32477;51.474;5.696;2023-07-31T13:04:49;6.85;;;4.50;;
46731;SDS011;32477;51.474;5.696;2023-07-31T13:07:15;9.95;;;4.05;;
46731;SDS011;32477;51.474;5.696;2023-07-31T13:09:41;10.38;;;4.63;;
46731;SDS011;32477;51.474;5.696;2023-07-31T13:12:07;13.23;;;4.55;;
46731;SDS011;32477;51.474;5.696;2023-07-31T13:14:33;8.77;;;4.10;;
46731;SDS011;32477;51.474;5.696;2023-07-31T13:16:59;9.48;;;4.60;;
46731;SDS011;32477;51.474;5.696;2023-07-31T13:19:24;8.95;;;4.20;;
46731;SDS011;32477;51.474;5.696;2023-07-31T13:21:50;8.20;;;4.40;;
46731;SDS011;32477;51.474;5.696;2023-07-31T13:24:16;9.88;;;4.50;;
46731;SDS011;32477;51.474;5.696;2023-07-31T13:26:44;9.30;;;4.10;;
46731;SDS011;32477;51.474;5.696;2023-07-31T13:29:09;12.13;;;4.20;;
46731;SDS011;32477;51.474;5.696;2023-07-31T13:31:35;12.23;;;4.78;;
46731;SDS011;32477;51.474;5.696;2023-07-31T13:34:01;10.50;;;4.13;;
46731;SDS011;32477;51.474;5.696;2023-07-31T13:36:27;8.00;;;4.43;;
46731;SDS011;32477;51.474;5.696;2023-07-31T13:38:53;14.25;;;5.20;;
46731;SDS011;32477;51.474;5.696;2023-07-31T13:41:19;9.93;;;4.57;;
46731;SDS011;32477;51.474;5.696;2023-07-31T13:43:44;9.88;;;4.53;;
46731;SDS011;32477;51.474;5.696;2023-07-31T13:46:10;11.98;;;4.90;;
46731;SDS011;32477;51.474;5.696;2023-07-31T13:48:36;8.82;;;4.25;;
46731;SDS011;32477;51.474;5.696;2023-07-31T13:51:01;10.00;;;4.45;;
46731;SDS011;32477;51.474;5.696;2023-07-31T13:53:27;8.68;;;4.10;;
46731;SDS011;32477;51.474;5.696;2023-07-31T13:55:53;11.88;;;4.80;;
46731;SDS011;32477;51.474;5.696;2023-07-31T13:58:18;11.32;;;4.28;;
46731;SDS011;32477;51.474;5.696;2023-07-31T14:00:45;10.30;;;4.60;;
46731;SDS011;32477;51.474;5.696;2023-07-31T14:03:11;11.20;;;4.90;;
46731;SDS011;32477;51.474;5.696;2023-07-31T14:05:36;12.00;;;4.65;;
46731;SDS011;32477;51.474;5.696;2023-07-31T14:08:02;14.80;;;5.20;;
46731;SDS011;32477;51.474;5.696;2023-07-31T14:10:28;15.07;;;5.68;;
46731;SDS011;32477;51.474;5.696;2023-07-31T14:12:54;11.30;;;4.70;;
46731;SDS011;32477;51.474;5.696;2023-07-31T14:15:19;13.05;;;5.88;;
46731;SDS011;32477;51.474;5.696;2023-07-31T14:17:45;12.70;;;5.65;;
46731;SDS011;32477;51.474;5.696;2023-07-31T14:20:11;12.23;;;5.55;;
46731;SDS011;32477;51.474;5.696;2023-07-31T14:22:37;14.95;;;6.13;;
46731;SDS011;32477;51.474;5.696;2023-07-31T14:25:03;13.68;;;6.18;;
46731;SDS011;32477;51.474;5.696;2023-07-31T14:27:29;16.48;;;5.68;;
46731;SDS011;32477;51.474;5.696;2023-07-31T14:29:55;9.27;;;5.22;;
46731;SDS011;32477;51.474;5.696;2023-07-31T14:32:23;12.02;;;5.00;;
46731;SDS011;32477;51.474;5.696;2023-07-31T14:34:50;11.77;;;5.68;;
46731;SDS011;32477;51.474;5.696;2023-07-31T14:37:16;14.43;;;6.53;;
46731;SDS011;32477;51.474;5.696;2023-07-31T14:39:41;12.40;;;5.82;;
46731;SDS011;32477;51.474;5.696;2023-07-31T14:42:08;16.00;;;6.60;;
46731;SDS011;32477;51.474;5.696;2023-07-31T14:44:34;15.02;;;6.68;;
46731;SDS011;32477;51.474;5.696;2023-07-31T14:46:59;20.13;;;6.70;;
46731;SDS011;32477;51.474;5.696;2023-07-31T14:49:25;17.17;;;7.32;;
46731;SDS011;32477;51.474;5.696;2023-07-31T14:51:53;18.20;;;7.05;;
46731;SDS011;32477;51.474;5.696;2023-07-31T14:54:18;11.10;;;6.40;;